createdAt,value
2018-12-09T00:01:54.142Z,3.40
2018-12-09T00:04:22.686Z,5.50
2018-12-09T00:06:51.230Z,4.07
2018-12-09T00:09:19.782Z,4.20
2018-12-09T00:11:48.644Z,3.57
2018-12-09T00:14:17.192Z,4.67
2018-12-09T00:16:45.747Z,3.57
2018-12-09T00:19:14.268Z,4.20
2018-12-09T00:21:42.775Z,4.20
2018-12-09T00:24:11.304Z,4.13
2018-12-09T00:26:39.820Z,3.60
2018-12-09T00:29:08.329Z,4.07
2018-12-09T00:31:38.124Z,4.30
2018-12-09T00:34:06.648Z,4.20
2018-12-09T00:36:35.165Z,5.63
2018-12-09T00:39:05.055Z,4.93
2018-12-09T00:41:33.593Z,4.80
2018-12-09T00:44:02.156Z,4.77
2018-12-09T00:46:30.703Z,5.07
2018-12-09T00:48:59.203Z,3.47
2018-12-09T00:51:27.920Z,5.17
2018-12-09T00:53:56.439Z,4.47
2018-12-09T00:56:24.956Z,5.20
2018-12-09T00:58:53.468Z,4.90
2018-12-09T01:01:21.987Z,5.47
2018-12-09T01:03:50.523Z,6.83
2018-12-09T01:06:19.063Z,4.77
2018-12-09T01:08:47.613Z,4.43
2018-12-09T01:11:16.164Z,4.77
2018-12-09T01:13:44.715Z,4.73
2018-12-09T01:16:13.267Z,3.93
2018-12-09T01:18:41.827Z,4.73
2018-12-09T01:21:10.075Z,5.43
2018-12-09T01:23:38.615Z,4.77
2018-12-09T01:26:06.838Z,4.33
2018-12-09T01:28:35.528Z,3.63
2018-12-09T01:31:04.123Z,3.63
2018-12-09T01:33:32.659Z,4.70
2018-12-09T01:36:01.183Z,4.13
2018-12-09T01:38:29.826Z,4.50
2018-12-09T01:40:58.802Z,3.00
2018-12-09T01:43:27.332Z,3.53
2018-12-09T01:45:55.878Z,4.00
2018-12-09T01:48:25.111Z,4.33
2018-12-09T01:50:53.647Z,3.87
2018-12-09T01:54:36.687Z,4.53
2018-12-09T01:57:05.367Z,3.13
2018-12-09T01:59:35.503Z,4.00
2018-12-09T02:02:05.119Z,3.53
2018-12-09T02:04:33.743Z,2.23
2018-12-09T02:07:02.282Z,3.70
2018-12-09T02:09:31.367Z,4.07
2018-12-09T02:11:59.875Z,4.03
2018-12-09T02:14:28.615Z,4.50
2018-12-09T02:16:57.132Z,3.93
2018-12-09T02:19:26.771Z,3.77
2018-12-09T02:21:55.459Z,3.77
2018-12-09T02:24:24.138Z,3.70
2018-12-09T02:26:52.653Z,3.27
2018-12-09T02:29:21.186Z,4.20
2018-12-09T02:31:49.982Z,4.10
2018-12-09T02:34:18.597Z,4.20
2018-12-09T02:36:47.210Z,3.23
2018-12-09T02:39:15.706Z,3.23
2018-12-09T02:41:44.225Z,3.83
2018-12-09T02:44:12.773Z,4.27
2018-12-09T02:46:41.542Z,3.63
2018-12-09T02:49:10.077Z,3.10
2018-12-09T02:51:38.712Z,3.93
2018-12-09T02:54:07.473Z,4.20
2018-12-09T02:56:36.347Z,4.33
2018-12-09T02:59:04.881Z,1.93
2018-12-09T03:01:33.557Z,3.47
2018-12-09T03:04:02.199Z,3.40
2018-12-09T03:06:30.885Z,3.73
2018-12-09T03:08:59.430Z,2.70
2018-12-09T03:11:27.970Z,1.60
2018-12-09T03:13:56.720Z,2.37
2018-12-09T03:16:25.258Z,3.50
2018-12-09T03:18:54.197Z,3.50
2018-12-09T03:21:22.706Z,2.67
2018-12-09T03:23:51.265Z,3.20
2018-12-09T03:26:19.768Z,3.67
2018-12-09T03:28:48.265Z,3.17
2018-12-09T03:31:16.786Z,3.50
2018-12-09T03:33:45.313Z,2.83
2018-12-09T03:36:13.848Z,3.80
2018-12-09T03:38:42.379Z,4.47
2018-12-09T03:41:10.932Z,8.70
2018-12-09T03:43:39.500Z,25.40
2018-12-09T03:46:08.160Z,10.60
2018-12-09T03:48:36.745Z,6.33
2018-12-09T03:51:05.276Z,5.23
2018-12-09T03:53:34.132Z,2.97
2018-12-09T03:56:02.652Z,5.10
2018-12-09T03:58:31.181Z,3.63
2018-12-09T04:00:59.729Z,4.97
2018-12-09T04:03:28.247Z,4.50
2018-12-09T04:05:56.887Z,4.73
2018-12-09T04:08:25.461Z,3.90
2018-12-09T04:10:54.000Z,4.60
2018-12-09T04:13:22.524Z,4.57
2018-12-09T04:15:51.980Z,4.53
2018-12-09T04:18:20.527Z,5.07
2018-12-09T04:20:49.184Z,4.83
2018-12-09T04:23:19.896Z,6.13
2018-12-09T04:25:48.420Z,23.47
2018-12-09T04:28:16.929Z,8.63
2018-12-09T04:30:45.633Z,5.63
2018-12-09T04:33:14.151Z,6.10
2018-12-09T04:35:42.699Z,7.23
2018-12-09T04:38:13.135Z,5.50
2018-12-09T04:40:41.684Z,3.60
2018-12-09T04:43:10.284Z,4.97
2018-12-09T04:45:38.808Z,5.97
2018-12-09T04:48:07.343Z,5.50
2018-12-09T04:50:36.212Z,5.00
2018-12-09T04:53:04.723Z,4.53
2018-12-09T04:55:33.257Z,4.37
2018-12-09T04:58:01.791Z,3.77
2018-12-09T05:00:41.618Z,4.33
2018-12-09T05:03:10.158Z,5.00
2018-12-09T05:05:38.667Z,5.30
2018-12-09T05:08:07.200Z,10.57
2018-12-09T05:10:39.259Z,4.47
2018-12-09T05:13:07.915Z,5.77
2018-12-09T05:15:36.572Z,5.97
2018-12-09T05:18:05.148Z,5.47
2018-12-09T05:20:33.659Z,4.30
2018-12-09T05:23:02.407Z,5.23
2018-12-09T05:25:30.939Z,6.57
2018-12-09T05:27:59.435Z,4.60
2018-12-09T05:30:27.951Z,5.10
2018-12-09T05:32:56.587Z,4.93
2018-12-09T05:35:25.139Z,5.07
2018-12-09T05:37:53.679Z,4.27
2018-12-09T05:40:22.223Z,5.07
2018-12-09T05:42:50.739Z,3.40
2018-12-09T05:45:19.315Z,6.43
2018-12-09T05:47:47.852Z,7.53
2018-12-09T05:50:16.394Z,6.60
2018-12-09T05:52:44.924Z,6.27
2018-12-09T05:55:15.155Z,5.70
2018-12-09T05:57:44.782Z,6.00
2018-12-09T06:00:13.503Z,7.43
2018-12-09T06:02:58.378Z,6.10
2018-12-09T06:05:26.890Z,4.80
2018-12-09T06:07:55.431Z,5.70
2018-12-09T06:10:23.999Z,5.30
2018-12-09T06:12:52.510Z,5.03
2018-12-09T06:15:21.050Z,9.17
2018-12-09T06:17:49.606Z,14.70
2018-12-09T06:20:18.162Z,6.90
2018-12-09T06:22:46.675Z,6.57
2018-12-09T06:25:15.205Z,5.03
2018-12-09T06:27:43.862Z,5.20
2018-12-09T06:30:12.515Z,4.60
2018-12-09T06:32:41.047Z,4.23
2018-12-09T06:35:09.742Z,6.30
2018-12-09T06:37:38.270Z,5.30
2018-12-09T06:40:07.111Z,3.70
2018-12-09T06:42:36.084Z,5.20
2018-12-09T06:45:06.252Z,5.73
2018-12-09T06:47:35.706Z,6.67
2018-12-09T06:50:06.248Z,4.70
2018-12-09T06:52:34.774Z,5.77
2018-12-09T06:55:03.547Z,4.47
2018-12-09T06:57:32.082Z,2.87
2018-12-09T07:00:00.606Z,5.47
2018-12-09T07:02:29.186Z,5.00
2018-12-09T07:04:57.718Z,6.30
2018-12-09T07:07:27.634Z,7.97
2018-12-09T07:09:56.378Z,7.10
2018-12-09T07:12:24.934Z,7.63
2018-12-09T07:14:53.466Z,6.10
2018-12-09T07:17:22.030Z,6.97
2018-12-09T07:19:50.590Z,6.73
2018-12-09T07:22:19.149Z,21.97
2018-12-09T07:24:47.722Z,9.87
2018-12-09T07:27:16.306Z,6.40
2018-12-09T07:29:44.865Z,6.83
2018-12-09T07:32:13.402Z,4.67
2018-12-09T07:34:41.938Z,5.27
2018-12-09T07:37:10.487Z,5.67
2018-12-09T07:39:43.492Z,10.40
2018-12-09T07:42:12.394Z,11.27
2018-12-09T07:44:41.029Z,7.13
2018-12-09T07:47:09.573Z,6.80
2018-12-09T07:49:38.113Z,9.07
2018-12-09T07:52:06.646Z,8.33
2018-12-09T07:54:35.190Z,12.17
2018-12-09T07:57:03.755Z,10.57
2018-12-09T07:59:32.406Z,10.50
2018-12-09T08:02:00.930Z,7.10
2018-12-09T08:04:29.470Z,9.73
2018-12-09T08:06:58.006Z,10.67
2018-12-09T08:09:27.331Z,9.27
2018-12-09T08:11:55.859Z,9.63
2018-12-09T08:14:24.413Z,11.43
2018-12-09T08:16:52.949Z,10.80
2018-12-09T08:19:21.501Z,9.73
2018-12-09T08:21:50.021Z,10.60
2018-12-09T08:24:18.569Z,12.67
2018-12-09T08:26:47.093Z,11.40
2018-12-09T08:29:15.876Z,16.13
2018-12-09T08:31:44.688Z,11.93
2018-12-09T08:34:13.239Z,19.87
2018-12-09T08:36:41.803Z,11.23
2018-12-09T08:39:10.341Z,54.80
2018-12-09T08:41:38.872Z,16.63
2018-12-09T08:44:07.404Z,21.20
2018-12-09T08:46:35.956Z,32.67
2018-12-09T08:49:04.524Z,15.07
2018-12-09T08:51:33.060Z,13.73
2018-12-09T08:54:02.772Z,8.97
2018-12-09T08:56:31.533Z,19.57
2018-12-09T08:59:00.327Z,14.50
2018-12-09T09:01:28.875Z,25.63
2018-12-09T09:03:57.447Z,15.77
2018-12-09T09:06:26.024Z,16.43
2018-12-09T09:08:54.532Z,11.67
2018-12-09T09:11:23.088Z,10.10
2018-12-09T09:13:51.623Z,7.40
2018-12-09T09:16:20.155Z,10.97
2018-12-09T09:18:48.711Z,16.93
2018-12-09T09:21:17.303Z,11.00
2018-12-09T09:23:45.814Z,13.20
2018-12-09T09:26:14.340Z,12.87
2018-12-09T09:28:43.096Z,36.83
2018-12-09T09:31:11.666Z,28.70
2018-12-09T09:33:40.233Z,24.43
2018-12-09T09:36:08.767Z,12.63
2018-12-09T09:38:37.308Z,11.63
2018-12-09T09:41:06.079Z,11.37
2018-12-09T09:43:34.640Z,15.53
2018-12-09T09:46:03.192Z,11.97
2018-12-09T09:48:32.558Z,17.53
2018-12-09T09:51:01.114Z,37.90
2018-12-09T09:53:29.692Z,17.43
2018-12-09T09:55:58.446Z,11.20
2018-12-09T09:58:26.947Z,14.27
2018-12-09T10:00:55.476Z,17.93
2018-12-09T10:03:26.073Z,14.57
2018-12-09T10:05:54.614Z,20.40
2018-12-09T10:08:23.170Z,13.27
2018-12-09T10:10:51.705Z,15.57
2018-12-09T10:13:20.258Z,14.27
2018-12-09T10:15:48.822Z,12.33
2018-12-09T10:18:17.326Z,10.70
2018-12-09T10:20:45.857Z,11.93
2018-12-09T10:23:16.073Z,13.27
2018-12-09T10:25:44.830Z,14.10
2018-12-09T10:28:13.385Z,16.93
2018-12-09T10:30:41.933Z,9.93
2018-12-09T10:33:10.445Z,8.40
2018-12-09T10:35:38.969Z,8.07
2018-12-09T10:38:07.502Z,9.60
2018-12-09T10:40:36.041Z,9.30
2018-12-09T10:43:04.585Z,10.23
2018-12-09T10:45:33.117Z,11.63
2018-12-09T10:48:01.634Z,9.40
2018-12-09T10:50:30.161Z,11.30
2018-12-09T10:52:58.797Z,9.67
2018-12-09T10:55:27.332Z,10.30
2018-12-09T10:57:55.881Z,9.50
2018-12-09T11:00:29.769Z,9.20
2018-12-09T11:02:58.305Z,10.57
2018-12-09T11:05:26.882Z,8.57
2018-12-09T11:07:55.421Z,8.23
2018-12-09T11:10:23.980Z,7.20
2018-12-09T11:12:52.509Z,8.60
2018-12-09T11:15:21.061Z,13.77
2018-12-09T11:17:49.589Z,13.50
2018-12-09T11:20:18.245Z,6.67
2018-12-09T11:22:46.789Z,10.60
2018-12-09T11:25:15.365Z,11.67
2018-12-09T11:27:43.874Z,7.17
2018-12-09T11:30:12.549Z,7.80
2018-12-09T11:32:41.094Z,6.70
2018-12-09T11:35:09.725Z,4.50
2018-12-09T11:37:38.410Z,5.37
2018-12-09T11:40:07.054Z,3.03
2018-12-09T11:42:35.632Z,3.33
2018-12-09T11:45:04.636Z,6.53
2018-12-09T11:47:33.503Z,3.00
2018-12-09T11:50:02.043Z,3.40
2018-12-09T11:52:30.702Z,3.70
2018-12-09T11:54:59.234Z,2.90
2018-12-09T11:57:27.790Z,3.27
2018-12-09T11:59:56.306Z,4.30
2018-12-09T12:02:24.860Z,6.67
2018-12-09T12:04:53.373Z,4.13
2018-12-09T12:07:21.926Z,3.87
2018-12-09T12:09:50.458Z,3.27
2018-12-09T12:12:18.982Z,4.43
2018-12-09T12:14:47.550Z,4.97
2018-12-09T12:17:16.074Z,3.83
2018-12-09T12:19:44.638Z,5.77
2018-12-09T12:22:13.270Z,5.63
2018-12-09T12:24:41.883Z,4.43
2018-12-09T12:27:10.422Z,4.70
2018-12-09T12:29:38.954Z,3.83
2018-12-09T12:32:07.498Z,3.30
2018-12-09T12:34:36.354Z,3.47
2018-12-09T12:37:04.878Z,4.07
2018-12-09T12:39:33.422Z,5.03
2018-12-09T12:42:01.934Z,4.00
2018-12-09T12:44:30.458Z,4.30
2018-12-09T12:46:59.032Z,3.70
2018-12-09T12:49:27.772Z,3.87
2018-12-09T12:51:56.501Z,5.97
2018-12-09T12:54:25.026Z,5.20
2018-12-09T12:56:53.548Z,6.57
2018-12-09T12:59:22.257Z,5.83
2018-12-09T13:01:50.837Z,6.20
2018-12-09T13:04:19.461Z,5.03
2018-12-09T13:06:48.141Z,5.43
2018-12-09T13:09:16.705Z,5.90
2018-12-09T13:11:45.267Z,5.03
2018-12-09T13:14:13.954Z,3.53
2018-12-09T13:16:42.627Z,5.40
2018-12-09T13:19:11.198Z,4.70
2018-12-09T13:21:39.790Z,4.27
2018-12-09T13:24:08.334Z,5.23
2018-12-09T13:26:37.042Z,7.37
2018-12-09T13:29:05.638Z,5.83
2018-12-09T13:31:34.330Z,5.10
2018-12-09T13:34:02.989Z,6.80
2018-12-09T13:36:31.573Z,8.30
2018-12-09T13:39:00.201Z,6.73
2018-12-09T13:41:28.777Z,7.20
2018-12-09T13:43:57.583Z,6.70
2018-12-09T13:46:26.142Z,9.20
2018-12-09T13:48:54.709Z,7.40
2018-12-09T13:51:23.269Z,5.40
2018-12-09T13:53:51.829Z,5.30
2018-12-09T13:56:20.842Z,4.80
2018-12-09T13:58:49.445Z,5.20
2018-12-09T14:01:17.994Z,4.63
2018-12-09T14:03:46.549Z,3.93
2018-12-09T14:06:15.105Z,4.80
2018-12-09T14:08:43.695Z,5.10
2018-12-09T14:11:12.364Z,4.23
2018-12-09T14:13:40.930Z,4.93
2018-12-09T14:16:09.704Z,3.93
2018-12-09T14:18:38.529Z,4.63
2018-12-09T14:21:07.192Z,4.97
2018-12-09T14:23:35.748Z,5.80
2018-12-09T14:26:04.441Z,4.43
2018-12-09T14:28:33.229Z,6.40
2018-12-09T14:31:01.821Z,6.07
2018-12-09T14:33:30.385Z,6.07
2018-12-09T14:35:59.077Z,4.60
2018-12-09T14:38:27.652Z,4.00
2018-12-09T14:40:56.213Z,4.27
2018-12-09T14:43:24.796Z,4.03
2018-12-09T14:45:53.380Z,4.17
2018-12-09T14:48:21.973Z,4.27
2018-12-09T14:50:50.560Z,4.60
2018-12-09T14:53:19.144Z,4.27
2018-12-09T14:55:47.701Z,4.80
2018-12-09T14:58:16.283Z,3.53
2018-12-09T15:00:44.824Z,4.23
2018-12-09T15:03:13.381Z,3.57
2018-12-09T15:05:41.964Z,4.60
2018-12-09T15:08:10.496Z,3.77
2018-12-09T15:10:39.285Z,3.40
2018-12-09T15:13:07.823Z,5.07
2018-12-09T15:15:36.380Z,3.40
2018-12-09T15:18:04.936Z,5.87
2018-12-09T15:20:33.521Z,5.53
2018-12-09T15:23:02.080Z,4.47
2018-12-09T15:25:30.668Z,4.53
2018-12-09T15:27:59.228Z,4.63
2018-12-09T15:30:27.792Z,4.70
2018-12-09T15:32:56.368Z,7.60
2018-12-09T15:35:24.938Z,9.90
2018-12-09T15:37:53.500Z,13.03
2018-12-09T15:40:22.105Z,6.13
2018-12-09T15:42:50.660Z,7.10
2018-12-09T15:45:19.463Z,18.93
2018-12-09T15:47:48.031Z,6.90
2018-12-09T15:50:16.600Z,8.63
2018-12-09T15:52:45.292Z,15.17
2018-12-09T15:55:13.875Z,11.13
2018-12-09T15:57:42.447Z,9.43
2018-12-09T16:00:11.139Z,13.10
2018-12-09T16:02:39.711Z,13.00
2018-12-09T16:05:08.259Z,9.10
2018-12-09T16:07:36.879Z,10.50
2018-12-09T16:10:08.043Z,8.80
2018-12-09T16:12:36.715Z,13.63
2018-12-09T16:15:06.022Z,11.20
2018-12-09T16:17:34.599Z,16.60
2018-12-09T16:20:03.415Z,10.47
2018-12-09T16:22:32.127Z,11.57
2018-12-09T16:25:00.693Z,11.33
2018-12-09T16:27:29.378Z,10.03
2018-12-09T16:29:57.958Z,10.30
2018-12-09T16:32:26.502Z,9.00
2018-12-09T16:34:55.058Z,10.50
2018-12-09T16:37:23.642Z,11.30
2018-12-09T16:39:52.207Z,7.37
2018-12-09T16:42:20.746Z,8.43
2018-12-09T16:44:49.318Z,8.97
2018-12-09T16:47:18.034Z,7.37
2018-12-09T16:49:46.574Z,7.33
2018-12-09T16:52:15.162Z,5.63
2018-12-09T16:54:43.750Z,7.10
2018-12-09T16:57:18.871Z,7.03
2018-12-09T16:59:47.422Z,7.67
2018-12-09T17:02:15.990Z,5.87
2018-12-09T17:04:44.616Z,6.30
2018-12-09T17:07:13.190Z,6.73
2018-12-09T17:09:54.286Z,4.50
2018-12-09T17:12:22.856Z,7.43
2018-12-09T17:14:51.406Z,6.03
2018-12-09T17:17:19.987Z,5.23
2018-12-09T17:19:48.629Z,4.70
2018-12-09T17:22:17.170Z,10.97
2018-12-09T17:24:45.757Z,5.97
2018-12-09T17:27:14.350Z,4.67
2018-12-09T17:29:42.954Z,6.87
2018-12-09T17:32:11.526Z,6.13
2018-12-09T17:34:40.195Z,8.10
2018-12-09T17:38:11.713Z,5.93
2018-12-09T17:40:40.389Z,6.07
2018-12-09T17:43:08.949Z,7.27
2018-12-09T17:45:37.617Z,5.40
2018-12-09T17:48:06.183Z,5.87
2018-12-09T17:50:34.757Z,6.47
2018-12-09T17:53:03.301Z,6.30
2018-12-09T17:55:31.905Z,6.07
2018-12-09T17:58:00.449Z,5.87
2018-12-09T18:00:29.041Z,8.33
2018-12-09T18:02:57.611Z,6.63
2018-12-09T18:05:26.245Z,6.37
2018-12-09T18:07:54.846Z,6.30
2018-12-09T18:10:23.417Z,6.57
2018-12-09T18:12:51.969Z,9.17
2018-12-09T18:15:23.125Z,7.93
2018-12-09T18:17:51.733Z,6.90
2018-12-09T18:20:20.277Z,6.07
2018-12-09T18:22:49.161Z,9.30
2018-12-09T18:25:17.813Z,7.00
2018-12-09T18:27:46.404Z,7.33
2018-12-09T18:30:15.013Z,8.73
2018-12-09T18:32:43.669Z,6.97
2018-12-09T18:35:12.357Z,6.93
2018-12-09T18:37:40.921Z,6.33
2018-12-09T18:40:09.486Z,9.17
2018-12-09T18:42:38.257Z,6.27
2018-12-09T18:45:07.004Z,8.50
2018-12-09T18:47:35.569Z,4.60
2018-12-09T18:50:04.533Z,6.37
2018-12-09T18:52:33.081Z,7.17
2018-12-09T18:55:01.697Z,6.70
2018-12-09T18:57:30.273Z,7.50
2018-12-09T18:59:58.857Z,9.10
2018-12-09T19:02:27.429Z,12.97
2018-12-09T19:04:55.983Z,9.40
2018-12-09T19:07:24.545Z,11.20
2018-12-09T19:09:53.349Z,10.93
2018-12-09T19:12:22.013Z,8.37
2018-12-09T19:14:50.565Z,6.33
2018-12-09T19:17:19.149Z,7.60
2018-12-09T19:19:47.729Z,8.43
2018-12-09T19:22:16.309Z,7.67
2018-12-09T19:24:44.897Z,5.57
2018-12-09T19:27:13.433Z,6.33
2018-12-09T19:29:42.004Z,4.70
2018-12-09T19:32:10.541Z,5.57
2018-12-09T19:34:39.104Z,5.40
2018-12-09T19:37:07.710Z,4.93
2018-12-09T19:39:36.262Z,7.60
2018-12-09T19:42:04.960Z,5.17
2018-12-09T19:44:33.614Z,5.70
2018-12-09T19:47:02.141Z,6.03
2018-12-09T19:49:30.734Z,6.00
2018-12-09T19:51:59.556Z,6.00
2018-12-09T19:54:28.113Z,7.27
2018-12-09T19:56:56.653Z,5.73
2018-12-09T19:59:25.172Z,5.77
2018-12-09T20:01:53.927Z,6.77
2018-12-09T20:04:22.483Z,7.27
2018-12-09T20:06:51.033Z,5.73
2018-12-09T20:09:19.568Z,6.97
2018-12-09T20:11:48.143Z,4.00
2018-12-09T20:14:16.725Z,6.77
2018-12-09T20:16:45.332Z,5.03
2018-12-09T20:19:13.967Z,12.60
2018-12-09T20:21:42.511Z,6.10
2018-12-09T20:24:11.086Z,7.47
2018-12-09T20:26:39.647Z,5.87
2018-12-09T20:29:08.177Z,6.37
2018-12-09T20:31:36.702Z,9.23
2018-12-09T20:34:05.225Z,10.60
2018-12-09T20:36:33.733Z,7.10
2018-12-09T20:39:02.273Z,7.03
2018-12-09T20:41:30.851Z,8.40
2018-12-09T20:43:59.405Z,5.47
2018-12-09T20:46:27.952Z,6.53
2018-12-09T20:48:56.504Z,5.80
2018-12-09T20:51:25.044Z,6.00
2018-12-09T20:53:53.603Z,6.43
2018-12-09T20:56:22.222Z,8.03
2018-12-09T20:58:50.828Z,9.73
2018-12-09T21:01:19.376Z,8.07
2018-12-09T21:03:47.928Z,7.50
2018-12-09T21:06:16.495Z,9.60
2018-12-09T21:08:45.011Z,5.83
2018-12-09T21:11:13.606Z,12.23
2018-12-09T21:13:42.155Z,8.83
2018-12-09T21:16:10.715Z,9.90
2018-12-09T21:18:39.243Z,7.50
2018-12-09T21:21:08.391Z,7.27
2018-12-09T21:23:37.030Z,7.80
2018-12-09T21:26:05.579Z,7.07
2018-12-09T21:28:34.131Z,8.33
2018-12-09T21:31:02.651Z,7.17
2018-12-09T21:33:31.167Z,6.47
2018-12-09T21:35:59.700Z,6.43
2018-12-09T21:38:28.358Z,6.50
2018-12-09T21:40:56.906Z,6.80
2018-12-09T21:43:25.435Z,7.83
2018-12-09T21:45:53.998Z,10.57
2018-12-09T21:48:22.580Z,12.17
2018-12-09T21:50:51.127Z,6.77
2018-12-09T21:53:20.433Z,6.50
2018-12-09T21:55:48.963Z,5.40
2018-12-09T21:58:17.510Z,4.50
2018-12-09T22:00:46.027Z,4.70
2018-12-09T22:03:14.563Z,5.13
2018-12-09T22:05:43.215Z,6.77
2018-12-09T22:08:11.819Z,6.10
2018-12-09T22:10:40.394Z,5.37
2018-12-09T22:13:08.938Z,5.50
2018-12-09T22:15:37.499Z,5.40
2018-12-09T22:18:06.058Z,5.90
2018-12-09T22:20:34.742Z,5.47
2018-12-09T22:23:03.330Z,5.97
2018-12-09T22:25:31.838Z,5.67
2018-12-09T22:28:00.374Z,5.60
2018-12-09T22:30:28.934Z,4.93
2018-12-09T22:32:57.458Z,4.80
2018-12-09T22:35:25.998Z,6.03
2018-12-09T22:37:54.544Z,5.57
2018-12-09T22:40:23.125Z,4.60
2018-12-09T22:42:51.850Z,5.93
2018-12-09T22:45:20.597Z,4.77
2018-12-09T22:47:49.265Z,6.13
2018-12-09T22:50:17.861Z,4.67
2018-12-09T22:52:46.480Z,6.23
2018-12-09T22:55:15.006Z,6.07
2018-12-09T22:57:43.569Z,5.20
2018-12-09T23:00:22.765Z,4.43
2018-12-09T23:02:56.589Z,4.33
2018-12-09T23:05:25.169Z,2.97
2018-12-09T23:07:54.842Z,3.10
2018-12-09T23:10:23.512Z,3.30
2018-12-09T23:12:52.044Z,4.13
2018-12-09T23:15:20.705Z,3.20
2018-12-09T23:17:49.372Z,3.77
2018-12-09T23:20:17.892Z,3.93
2018-12-09T23:22:46.408Z,3.97
2018-12-09T23:25:14.936Z,4.40
2018-12-09T23:27:43.500Z,3.73
2018-12-09T23:30:12.156Z,4.40
2018-12-09T23:32:40.688Z,4.10
2018-12-09T23:35:09.355Z,4.33
2018-12-09T23:37:37.991Z,3.97
2018-12-09T23:40:08.023Z,5.17
2018-12-09T23:42:36.555Z,4.50
2018-12-09T23:45:05.881Z,4.70
2018-12-09T23:47:34.710Z,3.73
2018-12-09T23:50:03.485Z,3.67
2018-12-09T23:52:32.033Z,4.57
2018-12-09T23:55:00.544Z,3.97
2018-12-09T23:57:29.757Z,4.07
2018-12-09T23:59:58.292Z,3.83
